sensor_id;sensor_type;location;lat;lon;timestamp;P1;durP1;ratioP1;P2;durP2;ratioP2
53513;SDS011;39768;54.148;12.174;2023-02-11T00:00:49;2.53;;;2.03;;
53513;SDS011;39768;54.148;12.174;2023-02-11T00:04:51;7.38;;;3.55;;
53513;SDS011;39768;54.148;12.174;2023-02-11T00:08:53;2.67;;;1.67;;
53513;SDS011;39768;54.148;12.174;2023-02-11T00:12:55;11.50;;;4.50;;
53513;SDS011;39768;54.148;12.174;2023-02-11T00:16:57;3.60;;;1.75;;
53513;SDS011;39768;54.148;12.174;2023-02-11T00:20:58;6.13;;;3.30;;
53513;SDS011;39768;54.148;12.174;2023-02-11T00:25:00;6.65;;;3.92;;
53513;SDS011;39768;54.148;12.174;2023-02-11T00:29:02;3.25;;;3.05;;
53513;SDS011;39768;54.148;12.174;2023-02-11T00:33:05;4.65;;;2.85;;
53513;SDS011;39768;54.148;12.174;2023-02-11T00:37:06;3.08;;;2.78;;
53513;SDS011;39768;54.148;12.174;2023-02-11T00:41:08;3.08;;;2.88;;
53513;SDS011;39768;54.148;12.174;2023-02-11T00:45:09;3.80;;;3.00;;
53513;SDS011;39768;54.148;12.174;2023-02-11T00:49:11;4.85;;;3.00;;
53513;SDS011;39768;54.148;12.174;2023-02-11T00:53:12;3.60;;;1.85;;
53513;SDS011;39768;54.148;12.174;2023-02-11T00:57:14;3.45;;;3.00;;
53513;SDS011;39768;54.148;12.174;2023-02-11T01:01:15;5.53;;;3.35;;
53513;SDS011;39768;54.148;12.174;2023-02-11T01:05:18;8.90;;;3.45;;
53513;SDS011;39768;54.148;12.174;2023-02-11T01:09:21;3.22;;;3.03;;
53513;SDS011;39768;54.148;12.174;2023-02-11T01:13:23;2.83;;;2.63;;
53513;SDS011;39768;54.148;12.174;2023-02-11T01:17:27;3.53;;;1.58;;
53513;SDS011;39768;54.148;12.174;2023-02-11T01:21:29;6.80;;;3.40;;
53513;SDS011;39768;54.148;12.174;2023-02-11T01:25:30;4.95;;;4.18;;
53513;SDS011;39768;54.148;12.174;2023-02-11T01:29:32;5.35;;;2.70;;
53513;SDS011;39768;54.148;12.174;2023-02-11T01:33:33;2.42;;;2.28;;
53513;SDS011;39768;54.148;12.174;2023-02-11T01:37:35;4.75;;;3.60;;
53513;SDS011;39768;54.148;12.174;2023-02-11T01:41:37;4.40;;;3.80;;
53513;SDS011;39768;54.148;12.174;2023-02-11T01:45:41;8.25;;;2.70;;
53513;SDS011;39768;54.148;12.174;2023-02-11T01:49:58;8.00;;;3.35;;
53513;SDS011;39768;54.148;12.174;2023-02-11T01:54:03;3.00;;;2.80;;
53513;SDS011;39768;54.148;12.174;2023-02-11T01:58:25;4.38;;;3.55;;
53513;SDS011;39768;54.148;12.174;2023-02-11T02:02:36;4.82;;;2.47;;
53513;SDS011;39768;54.148;12.174;2023-02-11T02:07:00;5.35;;;3.40;;
53513;SDS011;39768;54.148;12.174;2023-02-11T02:11:09;7.97;;;2.67;;
53513;SDS011;39768;54.148;12.174;2023-02-11T02:15:17;6.63;;;2.60;;
53513;SDS011;39768;54.148;12.174;2023-02-11T02:28:35;3.75;;;3.40;;
53513;SDS011;39768;54.148;12.174;2023-02-11T02:37:27;2.55;;;1.30;;
53513;SDS011;39768;54.148;12.174;2023-02-11T02:41:34;3.95;;;3.65;;
53513;SDS011;39768;54.148;12.174;2023-02-11T02:45:39;3.05;;;2.10;;
53513;SDS011;39768;54.148;12.174;2023-02-11T02:49:41;3.47;;;2.50;;
53513;SDS011;39768;54.148;12.174;2023-02-11T02:58:10;7.28;;;2.95;;
53513;SDS011;39768;54.148;12.174;2023-02-11T03:02:30;5.30;;;1.27;;
53513;SDS011;39768;54.148;12.174;2023-02-11T03:06:51;2.97;;;2.78;;
53513;SDS011;39768;54.148;12.174;2023-02-11T03:10:55;0.88;;;0.88;;
53513;SDS011;39768;54.148;12.174;2023-02-11T03:14:57;4.72;;;3.00;;
53513;SDS011;39768;54.148;12.174;2023-02-11T03:19:04;8.38;;;3.70;;
53513;SDS011;39768;54.148;12.174;2023-02-11T03:23:15;9.95;;;2.78;;
53513;SDS011;39768;54.148;12.174;2023-02-11T03:36:18;4.18;;;1.75;;
53513;SDS011;39768;54.148;12.174;2023-02-11T03:40:24;3.95;;;2.20;;
53513;SDS011;39768;54.148;12.174;2023-02-11T03:44:31;3.47;;;2.83;;
53513;SDS011;39768;54.148;12.174;2023-02-11T03:48:41;3.10;;;2.63;;
53513;SDS011;39768;54.148;12.174;2023-02-11T03:52:46;4.22;;;3.00;;
53513;SDS011;39768;54.148;12.174;2023-02-11T03:56:50;5.35;;;2.42;;
53513;SDS011;39768;54.148;12.174;2023-02-11T04:00:54;1.98;;;1.90;;
53513;SDS011;39768;54.148;12.174;2023-02-11T04:04:56;9.48;;;3.42;;
53513;SDS011;39768;54.148;12.174;2023-02-11T04:08:57;8.80;;;4.88;;
53513;SDS011;39768;54.148;12.174;2023-02-11T04:12:59;2.85;;;2.50;;
53513;SDS011;39768;54.148;12.174;2023-02-11T04:17:01;4.88;;;2.70;;
53513;SDS011;39768;54.148;12.174;2023-02-11T04:21:02;6.00;;;1.95;;
53513;SDS011;39768;54.148;12.174;2023-02-11T04:25:04;3.35;;;2.70;;
53513;SDS011;39768;54.148;12.174;2023-02-11T04:29:06;4.65;;;3.70;;
53513;SDS011;39768;54.148;12.174;2023-02-11T04:33:08;7.95;;;3.08;;
53513;SDS011;39768;54.148;12.174;2023-02-11T04:37:09;2.33;;;2.17;;
53513;SDS011;39768;54.148;12.174;2023-02-11T04:41:11;3.38;;;3.08;;
53513;SDS011;39768;54.148;12.174;2023-02-11T04:45:12;5.47;;;3.38;;
53513;SDS011;39768;54.148;12.174;2023-02-11T04:49:14;2.88;;;2.30;;
53513;SDS011;39768;54.148;12.174;2023-02-11T04:53:17;3.22;;;3.03;;
53513;SDS011;39768;54.148;12.174;2023-02-11T04:57:18;2.95;;;2.08;;
53513;SDS011;39768;54.148;12.174;2023-02-11T05:01:20;21.63;;;2.58;;
53513;SDS011;39768;54.148;12.174;2023-02-11T05:05:21;4.60;;;3.08;;
53513;SDS011;39768;54.148;12.174;2023-02-11T05:09:30;5.85;;;1.98;;
53513;SDS011;39768;54.148;12.174;2023-02-11T05:13:53;3.28;;;2.03;;
53513;SDS011;39768;54.148;12.174;2023-02-11T05:18:00;7.30;;;4.07;;
53513;SDS011;39768;54.148;12.174;2023-02-11T05:22:05;1.45;;;1.35;;
53513;SDS011;39768;54.148;12.174;2023-02-11T05:26:20;2.00;;;1.85;;
53513;SDS011;39768;54.148;12.174;2023-02-11T05:30:21;2.60;;;2.03;;
53513;SDS011;39768;54.148;12.174;2023-02-11T05:34:23;2.00;;;1.38;;
53513;SDS011;39768;54.148;12.174;2023-02-11T05:38:25;4.05;;;2.38;;
53513;SDS011;39768;54.148;12.174;2023-02-11T05:42:27;3.95;;;2.15;;
53513;SDS011;39768;54.148;12.174;2023-02-11T05:46:29;3.42;;;2.05;;
53513;SDS011;39768;54.148;12.174;2023-02-11T05:50:46;5.60;;;1.98;;
53513;SDS011;39768;54.148;12.174;2023-02-11T05:55:30;8.73;;;1.88;;
53513;SDS011;39768;54.148;12.174;2023-02-11T05:59:32;1.88;;;1.73;;
53513;SDS011;39768;54.148;12.174;2023-02-11T06:03:33;3.65;;;2.45;;
53513;SDS011;39768;54.148;12.174;2023-02-11T06:07:36;5.35;;;2.17;;
53513;SDS011;39768;54.148;12.174;2023-02-11T06:11:38;1.92;;;1.80;;
53513;SDS011;39768;54.148;12.174;2023-02-11T06:15:40;9.30;;;2.15;;
53513;SDS011;39768;54.148;12.174;2023-02-11T06:20:18;8.02;;;3.20;;
53513;SDS011;39768;54.148;12.174;2023-02-11T06:24:20;2.25;;;1.90;;
53513;SDS011;39768;54.148;12.174;2023-02-11T06:28:42;4.40;;;1.98;;
53513;SDS011;39768;54.148;12.174;2023-02-11T06:32:44;3.08;;;2.70;;
53513;SDS011;39768;54.148;12.174;2023-02-11T06:36:46;2.03;;;1.70;;
53513;SDS011;39768;54.148;12.174;2023-02-11T06:40:56;4.28;;;3.03;;
53513;SDS011;39768;54.148;12.174;2023-02-11T06:44:57;3.33;;;2.60;;
53513;SDS011;39768;54.148;12.174;2023-02-11T06:48:59;2.50;;;1.83;;
53513;SDS011;39768;54.148;12.174;2023-02-11T06:53:01;2.35;;;1.58;;
53513;SDS011;39768;54.148;12.174;2023-02-11T06:57:02;4.43;;;1.60;;
53513;SDS011;39768;54.148;12.174;2023-02-11T07:01:05;2.97;;;2.72;;
53513;SDS011;39768;54.148;12.174;2023-02-11T07:05:08;5.88;;;2.53;;
53513;SDS011;39768;54.148;12.174;2023-02-11T07:09:10;2.00;;;1.25;;
53513;SDS011;39768;54.148;12.174;2023-02-11T07:13:12;6.53;;;2.78;;
53513;SDS011;39768;54.148;12.174;2023-02-11T07:17:13;3.42;;;2.50;;
53513;SDS011;39768;54.148;12.174;2023-02-11T07:21:17;2.97;;;2.17;;
53513;SDS011;39768;54.148;12.174;2023-02-11T07:25:22;3.38;;;2.30;;
53513;SDS011;39768;54.148;12.174;2023-02-11T07:29:24;2.25;;;2.05;;
53513;SDS011;39768;54.148;12.174;2023-02-11T07:33:26;3.35;;;2.92;;
53513;SDS011;39768;54.148;12.174;2023-02-11T07:37:27;4.30;;;3.20;;
53513;SDS011;39768;54.148;12.174;2023-02-11T07:41:53;4.97;;;3.38;;
53513;SDS011;39768;54.148;12.174;2023-02-11T07:45:56;4.53;;;2.75;;
53513;SDS011;39768;54.148;12.174;2023-02-11T07:49:58;1.85;;;1.63;;
53513;SDS011;39768;54.148;12.174;2023-02-11T07:53:59;3.10;;;1.85;;
53513;SDS011;39768;54.148;12.174;2023-02-11T07:58:01;2.08;;;1.90;;
53513;SDS011;39768;54.148;12.174;2023-02-11T08:02:03;3.00;;;2.00;;
53513;SDS011;39768;54.148;12.174;2023-02-11T08:06:05;4.07;;;1.27;;
53513;SDS011;39768;54.148;12.174;2023-02-11T08:10:09;2.28;;;2.08;;
53513;SDS011;39768;54.148;12.174;2023-02-11T08:14:14;2.47;;;1.88;;
53513;SDS011;39768;54.148;12.174;2023-02-11T08:18:16;4.95;;;2.08;;
53513;SDS011;39768;54.148;12.174;2023-02-11T08:22:18;2.88;;;1.90;;
53513;SDS011;39768;54.148;12.174;2023-02-11T08:26:21;1.70;;;1.60;;
53513;SDS011;39768;54.148;12.174;2023-02-11T08:30:25;5.13;;;1.73;;
53513;SDS011;39768;54.148;12.174;2023-02-11T08:34:27;3.80;;;1.98;;
53513;SDS011;39768;54.148;12.174;2023-02-11T08:38:29;2.75;;;2.55;;
53513;SDS011;39768;54.148;12.174;2023-02-11T08:42:46;11.50;;;2.15;;
53513;SDS011;39768;54.148;12.174;2023-02-11T08:46:48;1.17;;;0.73;;
53513;SDS011;39768;54.148;12.174;2023-02-11T08:50:50;1.33;;;1.17;;
53513;SDS011;39768;54.148;12.174;2023-02-11T08:54:52;2.08;;;1.10;;
53513;SDS011;39768;54.148;12.174;2023-02-11T08:58:53;2.95;;;1.40;;
53513;SDS011;39768;54.148;12.174;2023-02-11T09:02:55;2.55;;;1.33;;
53513;SDS011;39768;54.148;12.174;2023-02-11T09:06:56;8.27;;;2.17;;
53513;SDS011;39768;54.148;12.174;2023-02-11T09:11:01;1.85;;;1.75;;
53513;SDS011;39768;54.148;12.174;2023-02-11T09:15:03;4.80;;;2.15;;
53513;SDS011;39768;54.148;12.174;2023-02-11T09:19:05;0.95;;;0.95;;
53513;SDS011;39768;54.148;12.174;2023-02-11T09:23:06;1.77;;;1.67;;
53513;SDS011;39768;54.148;12.174;2023-02-11T09:32:35;1.42;;;1.42;;
53513;SDS011;39768;54.148;12.174;2023-02-11T09:37:02;30.00;;;2.30;;
53513;SDS011;39768;54.148;12.174;2023-02-11T09:41:03;3.10;;;1.55;;
53513;SDS011;39768;54.148;12.174;2023-02-11T09:45:10;2.53;;;1.10;;
53513;SDS011;39768;54.148;12.174;2023-02-11T09:49:19;1.00;;;1.00;;
53513;SDS011;39768;54.148;12.174;2023-02-11T09:57:30;1.17;;;0.82;;
53513;SDS011;39768;54.148;12.174;2023-02-11T10:01:36;0.70;;;0.70;;
53513;SDS011;39768;54.148;12.174;2023-02-11T10:23:26;1.52;;;1.42;;
53513;SDS011;39768;54.148;12.174;2023-02-11T10:27:34;1.63;;;1.40;;
53513;SDS011;39768;54.148;12.174;2023-02-11T10:31:37;1.35;;;1.35;;
53513;SDS011;39768;54.148;12.174;2023-02-11T10:35:42;0.75;;;0.75;;
53513;SDS011;39768;54.148;12.174;2023-02-11T10:39:47;1.98;;;1.85;;
53513;SDS011;39768;54.148;12.174;2023-02-11T10:43:48;0.63;;;0.60;;
53513;SDS011;39768;54.148;12.174;2023-02-11T10:47:51;0.80;;;0.80;;
53513;SDS011;39768;54.148;12.174;2023-02-11T10:51:53;0.60;;;0.60;;
53513;SDS011;39768;54.148;12.174;2023-02-11T10:56:24;3.42;;;1.20;;
53513;SDS011;39768;54.148;12.174;2023-02-11T11:00:41;0.88;;;0.80;;
53513;SDS011;39768;54.148;12.174;2023-02-11T11:04:44;1.63;;;1.13;;
53513;SDS011;39768;54.148;12.174;2023-02-11T11:08:47;0.55;;;0.50;;
53513;SDS011;39768;54.148;12.174;2023-02-11T11:12:50;1.75;;;0.85;;
53513;SDS011;39768;54.148;12.174;2023-02-11T11:16:52;0.65;;;0.65;;
53513;SDS011;39768;54.148;12.174;2023-02-11T11:21:00;11.48;;;2.17;;
53513;SDS011;39768;54.148;12.174;2023-02-11T11:25:19;0.55;;;0.50;;
53513;SDS011;39768;54.148;12.174;2023-02-11T11:29:44;1.33;;;1.23;;
53513;SDS011;39768;54.148;12.174;2023-02-11T11:33:48;0.93;;;0.93;;
53513;SDS011;39768;54.148;12.174;2023-02-11T11:37:54;0.32;;;0.32;;
53513;SDS011;39768;54.148;12.174;2023-02-11T11:42:03;1.50;;;1.00;;
53513;SDS011;39768;54.148;12.174;2023-02-11T11:46:23;0.30;;;0.30;;
53513;SDS011;39768;54.148;12.174;2023-02-11T11:50:34;0.63;;;0.63;;
53513;SDS011;39768;54.148;12.174;2023-02-11T11:54:58;0.30;;;0.30;;
53513;SDS011;39768;54.148;12.174;2023-02-11T11:59:08;0.50;;;0.50;;
53513;SDS011;39768;54.148;12.174;2023-02-11T12:17:02;1.35;;;0.80;;
53513;SDS011;39768;54.148;12.174;2023-02-11T12:26:28;1.50;;;0.30;;
53513;SDS011;39768;54.148;12.174;2023-02-11T12:34:48;0.73;;;0.73;;
53513;SDS011;39768;54.148;12.174;2023-02-11T12:43:36;0.20;;;0.20;;
53513;SDS011;39768;54.148;12.174;2023-02-11T12:47:56;5.40;;;0.82;;
53513;SDS011;39768;54.148;12.174;2023-02-11T13:06:40;0.47;;;0.47;;
53513;SDS011;39768;54.148;12.174;2023-02-11T13:14:53;0.77;;;0.63;;
53513;SDS011;39768;54.148;12.174;2023-02-11T13:23:53;0.57;;;0.57;;
53513;SDS011;39768;54.148;12.174;2023-02-11T13:28:10;1.20;;;1.10;;
53513;SDS011;39768;54.148;12.174;2023-02-11T13:32:29;4.90;;;0.77;;
53513;SDS011;39768;54.148;12.174;2023-02-11T13:37:03;0.43;;;0.43;;
53513;SDS011;39768;54.148;12.174;2023-02-11T13:41:19;0.40;;;0.40;;
53513;SDS011;39768;54.148;12.174;2023-02-11T13:45:40;6.50;;;0.80;;
53513;SDS011;39768;54.148;12.174;2023-02-11T13:49:48;1.98;;;1.00;;
53513;SDS011;39768;54.148;12.174;2023-02-11T14:02:22;1.65;;;0.93;;
53513;SDS011;39768;54.148;12.174;2023-02-11T14:07:20;1.27;;;0.93;;
53513;SDS011;39768;54.148;12.174;2023-02-11T14:11:53;0.30;;;0.30;;
53513;SDS011;39768;54.148;12.174;2023-02-11T14:21:08;0.98;;;0.90;;
53513;SDS011;39768;54.148;12.174;2023-02-11T14:25:16;2.70;;;0.75;;
53513;SDS011;39768;54.148;12.174;2023-02-11T14:33:58;0.57;;;0.30;;
53513;SDS011;39768;54.148;12.174;2023-02-11T14:38:14;0.40;;;0.40;;
53513;SDS011;39768;54.148;12.174;2023-02-11T14:42:24;2.97;;;0.65;;
53513;SDS011;39768;54.148;12.174;2023-02-11T14:46:29;0.30;;;0.30;;
53513;SDS011;39768;54.148;12.174;2023-02-11T14:50:57;2.50;;;0.80;;
53513;SDS011;39768;54.148;12.174;2023-02-11T14:55:14;2.03;;;0.30;;
53513;SDS011;39768;54.148;12.174;2023-02-11T14:59:29;0.38;;;0.38;;
53513;SDS011;39768;54.148;12.174;2023-02-11T15:03:37;2.10;;;0.52;;
53513;SDS011;39768;54.148;12.174;2023-02-11T15:11:56;0.50;;;0.50;;
53513;SDS011;39768;54.148;12.174;2023-02-11T15:16:03;0.30;;;0.30;;
53513;SDS011;39768;54.148;12.174;2023-02-11T15:20:17;0.47;;;0.47;;
53513;SDS011;39768;54.148;12.174;2023-02-11T15:24:24;1.40;;;0.45;;
53513;SDS011;39768;54.148;12.174;2023-02-11T15:28:29;4.00;;;0.52;;
53513;SDS011;39768;54.148;12.174;2023-02-11T15:32:35;2.08;;;0.63;;
53513;SDS011;39768;54.148;12.174;2023-02-11T15:36:37;10.40;;;0.65;;
53513;SDS011;39768;54.148;12.174;2023-02-11T15:40:38;0.50;;;0.50;;
53513;SDS011;39768;54.148;12.174;2023-02-11T15:44:40;0.30;;;0.30;;
53513;SDS011;39768;54.148;12.174;2023-02-11T15:48:51;1.30;;;0.70;;
53513;SDS011;39768;54.148;12.174;2023-02-11T15:52:54;0.20;;;0.20;;
53513;SDS011;39768;54.148;12.174;2023-02-11T15:57:02;0.98;;;0.43;;
53513;SDS011;39768;54.148;12.174;2023-02-11T16:01:07;0.70;;;0.70;;
53513;SDS011;39768;54.148;12.174;2023-02-11T16:05:30;0.32;;;0.30;;
53513;SDS011;39768;54.148;12.174;2023-02-11T16:09:35;0.93;;;0.40;;
53513;SDS011;39768;54.148;12.174;2023-02-11T16:13:44;1.77;;;1.20;;
53513;SDS011;39768;54.148;12.174;2023-02-11T16:17:47;0.60;;;0.45;;
53513;SDS011;39768;54.148;12.174;2023-02-11T16:21:49;0.50;;;0.50;;
53513;SDS011;39768;54.148;12.174;2023-02-11T16:30:36;0.75;;;0.57;;
53513;SDS011;39768;54.148;12.174;2023-02-11T16:35:06;0.45;;;0.45;;
53513;SDS011;39768;54.148;12.174;2023-02-11T16:39:21;6.93;;;1.55;;
53513;SDS011;39768;54.148;12.174;2023-02-11T16:43:23;1.30;;;0.80;;
53513;SDS011;39768;54.148;12.174;2023-02-11T16:47:25;0.45;;;0.40;;
53513;SDS011;39768;54.148;12.174;2023-02-11T16:51:28;0.25;;;0.25;;
53513;SDS011;39768;54.148;12.174;2023-02-11T16:55:29;0.30;;;0.30;;
53513;SDS011;39768;54.148;12.174;2023-02-11T16:59:32;0.30;;;0.30;;
53513;SDS011;39768;54.148;12.174;2023-02-11T17:03:36;6.22;;;1.13;;
53513;SDS011;39768;54.148;12.174;2023-02-11T17:07:40;1.30;;;0.95;;
53513;SDS011;39768;54.148;12.174;2023-02-11T17:11:42;1.67;;;0.57;;
53513;SDS011;39768;54.148;12.174;2023-02-11T17:15:43;0.47;;;0.47;;
53513;SDS011;39768;54.148;12.174;2023-02-11T17:19:53;1.70;;;1.60;;
53513;SDS011;39768;54.148;12.174;2023-02-11T17:25:44;4.38;;;0.60;;
53513;SDS011;39768;54.148;12.174;2023-02-11T17:34:48;4.47;;;0.57;;
53513;SDS011;39768;54.148;12.174;2023-02-11T17:38:50;0.32;;;0.32;;
53513;SDS011;39768;54.148;12.174;2023-02-11T17:42:52;0.80;;;0.65;;
53513;SDS011;39768;54.148;12.174;2023-02-11T17:46:53;0.90;;;0.75;;
53513;SDS011;39768;54.148;12.174;2023-02-11T17:50:55;3.80;;;1.05;;
53513;SDS011;39768;54.148;12.174;2023-02-11T17:54:56;3.25;;;1.30;;
53513;SDS011;39768;54.148;12.174;2023-02-11T17:58:58;1.67;;;0.77;;
53513;SDS011;39768;54.148;12.174;2023-02-11T18:02:59;0.43;;;0.43;;
53513;SDS011;39768;54.148;12.174;2023-02-11T18:07:04;1.15;;;0.95;;
53513;SDS011;39768;54.148;12.174;2023-02-11T18:11:10;0.60;;;0.60;;
53513;SDS011;39768;54.148;12.174;2023-02-11T18:15:12;2.60;;;0.85;;
53513;SDS011;39768;54.148;12.174;2023-02-11T18:19:14;0.20;;;0.20;;
53513;SDS011;39768;54.148;12.174;2023-02-11T18:23:15;0.68;;;0.68;;
53513;SDS011;39768;54.148;12.174;2023-02-11T18:27:17;8.70;;;0.60;;
53513;SDS011;39768;54.148;12.174;2023-02-11T18:31:19;0.57;;;0.52;;
53513;SDS011;39768;54.148;12.174;2023-02-11T18:35:22;1.73;;;0.82;;
53513;SDS011;39768;54.148;12.174;2023-02-11T18:39:23;0.52;;;0.50;;
53513;SDS011;39768;54.148;12.174;2023-02-11T18:43:26;1.75;;;0.52;;
53513;SDS011;39768;54.148;12.174;2023-02-11T18:47:31;0.80;;;0.80;;
53513;SDS011;39768;54.148;12.174;2023-02-11T18:51:33;4.90;;;0.95;;
53513;SDS011;39768;54.148;12.174;2023-02-11T18:55:37;0.50;;;0.47;;
53513;SDS011;39768;54.148;12.174;2023-02-11T18:59:40;0.52;;;0.52;;
53513;SDS011;39768;54.148;12.174;2023-02-11T19:03:41;2.08;;;0.63;;
53513;SDS011;39768;54.148;12.174;2023-02-11T19:07:44;3.35;;;0.55;;
53513;SDS011;39768;54.148;12.174;2023-02-11T19:11:46;0.88;;;0.77;;
53513;SDS011;39768;54.148;12.174;2023-02-11T19:15:47;3.10;;;0.63;;
53513;SDS011;39768;54.148;12.174;2023-02-11T19:19:49;5.60;;;1.58;;
53513;SDS011;39768;54.148;12.174;2023-02-11T19:23:50;4.55;;;1.08;;
53513;SDS011;39768;54.148;12.174;2023-02-11T19:27:52;0.35;;;0.35;;
53513;SDS011;39768;54.148;12.174;2023-02-11T19:31:53;0.60;;;0.60;;
53513;SDS011;39768;54.148;12.174;2023-02-11T19:36:00;3.03;;;1.13;;
53513;SDS011;39768;54.148;12.174;2023-02-11T19:40:03;0.20;;;0.20;;
53513;SDS011;39768;54.148;12.174;2023-02-11T19:44:05;0.45;;;0.45;;
53513;SDS011;39768;54.148;12.174;2023-02-11T19:48:08;3.03;;;0.55;;
53513;SDS011;39768;54.148;12.174;2023-02-11T19:52:13;11.05;;;0.95;;
53513;SDS011;39768;54.148;12.174;2023-02-11T19:56:14;0.55;;;0.55;;
53513;SDS011;39768;54.148;12.174;2023-02-11T20:00:16;0.80;;;0.80;;
53513;SDS011;39768;54.148;12.174;2023-02-11T20:04:18;0.95;;;0.60;;
53513;SDS011;39768;54.148;12.174;2023-02-11T20:08:20;0.65;;;0.63;;
53513;SDS011;39768;54.148;12.174;2023-02-11T20:12:21;2.45;;;0.65;;
53513;SDS011;39768;54.148;12.174;2023-02-11T20:16:23;0.50;;;0.50;;
53513;SDS011;39768;54.148;12.174;2023-02-11T20:20:46;0.50;;;0.50;;
53513;SDS011;39768;54.148;12.174;2023-02-11T20:24:48;4.45;;;0.73;;
53513;SDS011;39768;54.148;12.174;2023-02-11T20:28:50;2.13;;;0.68;;
53513;SDS011;39768;54.148;12.174;2023-02-11T20:32:52;0.50;;;0.50;;
53513;SDS011;39768;54.148;12.174;2023-02-11T20:36:54;4.18;;;0.45;;
53513;SDS011;39768;54.148;12.174;2023-02-11T20:41:00;0.30;;;0.30;;
53513;SDS011;39768;54.148;12.174;2023-02-11T20:45:06;0.57;;;0.22;;
53513;SDS011;39768;54.148;12.174;2023-02-11T20:49:11;1.65;;;1.20;;
53513;SDS011;39768;54.148;12.174;2023-02-11T20:53:14;8.15;;;0.82;;
53513;SDS011;39768;54.148;12.174;2023-02-11T20:57:16;0.77;;;0.77;;
53513;SDS011;39768;54.148;12.174;2023-02-11T21:01:19;0.73;;;0.73;;
53513;SDS011;39768;54.148;12.174;2023-02-11T21:05:22;3.75;;;0.77;;
53513;SDS011;39768;54.148;12.174;2023-02-11T21:09:25;0.50;;;0.50;;
53513;SDS011;39768;54.148;12.174;2023-02-11T21:13:28;1.55;;;0.60;;
53513;SDS011;39768;54.148;12.174;2023-02-11T21:17:30;3.03;;;0.60;;
53513;SDS011;39768;54.148;12.174;2023-02-11T21:21:34;0.60;;;0.60;;
53513;SDS011;39768;54.148;12.174;2023-02-11T21:25:36;1.65;;;0.80;;
53513;SDS011;39768;54.148;12.174;2023-02-11T21:29:37;0.63;;;0.63;;
53513;SDS011;39768;54.148;12.174;2023-02-11T21:33:54;0.43;;;0.43;;
53513;SDS011;39768;54.148;12.174;2023-02-11T21:37:56;0.73;;;0.73;;
53513;SDS011;39768;54.148;12.174;2023-02-11T21:41:57;0.73;;;0.73;;
53513;SDS011;39768;54.148;12.174;2023-02-11T21:45:59;0.77;;;0.77;;
53513;SDS011;39768;54.148;12.174;2023-02-11T21:50:01;0.55;;;0.55;;
53513;SDS011;39768;54.148;12.174;2023-02-11T21:54:02;0.77;;;0.60;;
53513;SDS011;39768;54.148;12.174;2023-02-11T21:58:04;0.30;;;0.30;;
53513;SDS011;39768;54.148;12.174;2023-02-11T22:02:07;0.70;;;0.57;;
53513;SDS011;39768;54.148;12.174;2023-02-11T22:06:14;0.38;;;0.38;;
53513;SDS011;39768;54.148;12.174;2023-02-11T22:10:18;0.98;;;0.55;;
53513;SDS011;39768;54.148;12.174;2023-02-11T22:14:19;3.22;;;0.85;;
53513;SDS011;39768;54.148;12.174;2023-02-11T22:18:21;0.35;;;0.35;;
53513;SDS011;39768;54.148;12.174;2023-02-11T22:22:22;3.30;;;0.70;;
53513;SDS011;39768;54.148;12.174;2023-02-11T22:26:25;0.98;;;0.95;;
53513;SDS011;39768;54.148;12.174;2023-02-11T22:30:27;5.60;;;1.08;;
53513;SDS011;39768;54.148;12.174;2023-02-11T22:34:29;1.05;;;0.80;;
53513;SDS011;39768;54.148;12.174;2023-02-11T22:38:31;2.15;;;0.63;;
53513;SDS011;39768;54.148;12.174;2023-02-11T22:42:34;0.70;;;0.70;;
53513;SDS011;39768;54.148;12.174;2023-02-11T22:46:35;0.40;;;0.38;;
53513;SDS011;39768;54.148;12.174;2023-02-11T22:50:37;3.10;;;0.65;;
53513;SDS011;39768;54.148;12.174;2023-02-11T22:54:39;2.45;;;0.45;;
53513;SDS011;39768;54.148;12.174;2023-02-11T22:58:40;3.22;;;0.88;;
53513;SDS011;39768;54.148;12.174;2023-02-11T23:02:42;0.88;;;0.80;;
53513;SDS011;39768;54.148;12.174;2023-02-11T23:06:44;0.38;;;0.38;;
53513;SDS011;39768;54.148;12.174;2023-02-11T23:10:47;0.60;;;0.60;;
53513;SDS011;39768;54.148;12.174;2023-02-11T23:14:49;0.80;;;0.80;;
53513;SDS011;39768;54.148;12.174;2023-02-11T23:18:51;3.67;;;0.70;;
53513;SDS011;39768;54.148;12.174;2023-02-11T23:22:53;0.60;;;0.60;;
53513;SDS011;39768;54.148;12.174;2023-02-11T23:26:55;1.05;;;0.47;;
53513;SDS011;39768;54.148;12.174;2023-02-11T23:30:56;0.45;;;0.45;;
53513;SDS011;39768;54.148;12.174;2023-02-11T23:34:58;1.17;;;0.93;;
53513;SDS011;39768;54.148;12.174;2023-02-11T23:38:59;0.80;;;0.80;;
53513;SDS011;39768;54.148;12.174;2023-02-11T23:43:01;1.85;;;1.15;;
53513;SDS011;39768;54.148;12.174;2023-02-11T23:47:03;2.03;;;1.00;;
53513;SDS011;39768;54.148;12.174;2023-02-11T23:51:04;0.70;;;0.63;;
53513;SDS011;39768;54.148;12.174;2023-02-11T23:55:07;3.55;;;0.82;;
53513;SDS011;39768;54.148;12.174;2023-02-11T23:59:09;2.85;;;1.30;;
